createdAt,value
2024-04-30T00:01:21.655Z,6.17
2024-04-30T00:03:49.427Z,5.95
2024-04-30T00:06:20.189Z,5.75
2024-04-30T00:08:47.893Z,5.38
2024-04-30T00:11:15.669Z,5.68
2024-04-30T00:13:46.820Z,5.23
2024-04-30T00:16:14.583Z,5.25
2024-04-30T00:18:44.414Z,5.82
2024-04-30T00:21:12.240Z,5.57
2024-04-30T00:23:39.929Z,7.18
2024-04-30T00:26:12.256Z,5.40
2024-04-30T00:28:43.032Z,5.13
2024-04-30T00:31:10.858Z,6.72
2024-04-30T00:33:40.051Z,6.07
2024-04-30T00:36:07.920Z,4.88
2024-04-30T00:38:35.648Z,8.90
2024-04-30T00:41:03.489Z,6.55
2024-04-30T00:43:31.387Z,6.05
2024-04-30T00:45:59.205Z,7.85
2024-04-30T00:48:27.461Z,6.28
2024-04-30T00:50:57.245Z,7.83
2024-04-30T00:53:25.373Z,8.20
2024-04-30T00:55:53.348Z,5.57
2024-04-30T00:58:21.628Z,7.72
2024-04-30T01:00:49.560Z,6.20
2024-04-30T01:03:17.437Z,6.37
2024-04-30T01:05:45.737Z,7.28
2024-04-30T01:08:13.445Z,7.20
2024-04-30T01:10:41.306Z,5.88
2024-04-30T01:13:13.725Z,5.55
2024-04-30T01:15:41.502Z,9.70
2024-04-30T01:18:09.275Z,5.78
2024-04-30T01:20:37.056Z,6.65
2024-04-30T01:23:04.966Z,6.28
2024-04-30T01:25:32.875Z,5.30
2024-04-30T01:28:00.761Z,6.77
2024-04-30T01:30:28.585Z,5.60
2024-04-30T01:32:56.788Z,6.15
2024-04-30T01:35:24.639Z,4.72
2024-04-30T01:37:52.319Z,4.97
2024-04-30T01:40:20.207Z,5.43
2024-04-30T01:42:50.482Z,7.05
2024-04-30T01:45:18.283Z,6.50
2024-04-30T01:47:46.096Z,6.75
2024-04-30T01:50:13.876Z,6.10
2024-04-30T01:52:42.570Z,5.27
2024-04-30T01:55:10.605Z,6.22
2024-04-30T01:57:39.168Z,5.55
2024-04-30T02:00:07.838Z,5.15
2024-04-30T02:02:35.595Z,5.95
2024-04-30T02:05:10.454Z,5.90
2024-04-30T02:07:41.886Z,4.97
2024-04-30T02:10:09.711Z,6.55
2024-04-30T02:12:37.529Z,6.03
2024-04-30T02:15:05.852Z,5.00
2024-04-30T02:17:33.705Z,6.00
2024-04-30T02:20:02.944Z,5.32
2024-04-30T02:22:30.989Z,5.10
2024-04-30T02:24:58.872Z,5.82
2024-04-30T02:27:26.748Z,4.55
2024-04-30T02:29:54.467Z,8.00
2024-04-30T02:32:41.051Z,5.20
2024-04-30T02:35:08.905Z,5.30
2024-04-30T02:37:36.703Z,5.80
2024-04-30T02:40:05.185Z,5.93
2024-04-30T02:42:33.077Z,8.23
2024-04-30T02:45:00.797Z,6.18
2024-04-30T02:47:28.677Z,6.30
2024-04-30T02:49:56.543Z,5.20
2024-04-30T02:52:26.974Z,5.18
2024-04-30T02:54:54.831Z,6.53
2024-04-30T02:57:22.587Z,5.15
2024-04-30T02:59:50.330Z,6.75
2024-04-30T03:02:18.131Z,5.68
2024-04-30T03:04:46.346Z,5.57
2024-04-30T03:07:14.138Z,6.07
2024-04-30T03:09:41.908Z,5.70
2024-04-30T03:12:09.659Z,8.05
2024-04-30T03:14:37.498Z,6.05
2024-04-30T03:17:05.528Z,6.82
2024-04-30T03:19:35.686Z,7.03
2024-04-30T03:22:03.604Z,5.00
2024-04-30T03:24:32.944Z,7.43
2024-04-30T03:27:00.666Z,6.03
2024-04-30T03:29:28.656Z,7.82
2024-04-30T03:31:56.511Z,6.20
2024-04-30T03:34:24.983Z,6.78
2024-04-30T03:36:52.683Z,6.13
2024-04-30T03:39:20.453Z,7.95
2024-04-30T03:41:48.208Z,7.13
2024-04-30T03:44:15.967Z,7.83
2024-04-30T03:46:43.725Z,6.15
2024-04-30T03:49:11.645Z,6.60
2024-04-30T03:51:39.486Z,7.40
2024-04-30T03:54:07.401Z,7.57
2024-04-30T03:56:35.121Z,6.23
2024-04-30T03:59:03.057Z,6.75
2024-04-30T04:01:30.850Z,6.22
2024-04-30T04:03:58.859Z,7.68
2024-04-30T04:06:29.712Z,5.65
2024-04-30T04:08:59.102Z,6.40
2024-04-30T04:11:45.780Z,7.05
2024-04-30T04:14:32.350Z,5.88
2024-04-30T04:17:00.173Z,6.40
2024-04-30T04:19:28.006Z,7.10
2024-04-30T04:21:55.773Z,6.80
2024-04-30T04:24:23.738Z,6.22
2024-04-30T04:26:51.477Z,6.57
2024-04-30T04:29:19.554Z,6.10
2024-04-30T04:31:47.450Z,5.90
2024-04-30T04:34:15.288Z,6.17
2024-04-30T04:36:44.216Z,6.15
2024-04-30T04:39:12.742Z,6.53
2024-04-30T04:41:40.617Z,5.63
2024-04-30T04:44:08.796Z,6.03
2024-04-30T04:46:37.049Z,6.77
2024-04-30T04:49:07.870Z,6.15
2024-04-30T04:51:35.895Z,6.45
2024-04-30T04:54:03.587Z,5.50
2024-04-30T04:56:31.381Z,5.95
2024-04-30T04:58:59.073Z,6.97
2024-04-30T05:01:27.046Z,6.60
2024-04-30T05:03:54.959Z,7.28
2024-04-30T05:06:22.731Z,6.72
2024-04-30T05:08:50.601Z,7.28
2024-04-30T05:11:18.469Z,6.13
2024-04-30T05:13:46.206Z,6.97
2024-04-30T05:16:14.002Z,5.50
2024-04-30T05:18:41.773Z,6.65
2024-04-30T05:21:09.656Z,5.47
2024-04-30T05:23:37.379Z,6.77
2024-04-30T05:26:05.371Z,7.47
2024-04-30T05:28:33.181Z,7.22
2024-04-30T05:31:01.064Z,6.90
2024-04-30T05:33:31.071Z,7.03
2024-04-30T05:35:58.922Z,8.23
2024-04-30T05:38:26.655Z,6.93
2024-04-30T05:40:54.457Z,7.20
2024-04-30T05:43:22.222Z,7.38
2024-04-30T05:45:50.097Z,8.57
2024-04-30T05:48:17.889Z,6.73
2024-04-30T05:50:45.729Z,7.65
2024-04-30T05:53:13.500Z,6.13
2024-04-30T05:55:41.332Z,9.13
2024-04-30T05:58:09.061Z,8.60
2024-04-30T06:00:36.940Z,7.20
2024-04-30T06:03:04.979Z,6.00
2024-04-30T06:05:32.774Z,6.63
2024-04-30T06:08:00.521Z,6.93
2024-04-30T06:10:28.287Z,6.30
2024-04-30T06:12:56.009Z,7.27
2024-04-30T06:15:23.833Z,6.35
2024-04-30T06:17:51.729Z,6.53
2024-04-30T06:20:19.559Z,5.40
2024-04-30T06:22:47.269Z,6.45
2024-04-30T06:25:15.151Z,6.43
2024-04-30T06:27:42.835Z,7.25
2024-04-30T06:30:11.328Z,7.53
2024-04-30T06:32:39.104Z,6.53
2024-04-30T06:35:07.377Z,5.60
2024-04-30T06:37:35.150Z,9.27
2024-04-30T06:40:03.340Z,6.13
2024-04-30T06:42:31.112Z,5.57
2024-04-30T06:44:58.861Z,7.65
2024-04-30T06:47:26.692Z,7.72
2024-04-30T06:49:54.755Z,5.20
2024-04-30T06:52:22.569Z,7.45
2024-04-30T06:54:50.439Z,5.30
2024-04-30T06:57:18.152Z,5.60
2024-04-30T06:59:46.093Z,7.15
2024-04-30T07:02:13.896Z,5.23
2024-04-30T07:04:41.728Z,5.53
2024-04-30T07:07:09.747Z,5.13
2024-04-30T07:09:37.548Z,6.60
2024-04-30T07:12:05.726Z,6.07
2024-04-30T07:14:35.087Z,6.50
2024-04-30T07:17:07.948Z,5.90
2024-04-30T07:19:37.303Z,5.65
2024-04-30T07:22:05.569Z,5.13
2024-04-30T07:24:33.482Z,6.03
2024-04-30T07:27:01.234Z,5.83
2024-04-30T07:29:29.108Z,6.85
2024-04-30T07:31:56.943Z,5.53
2024-04-30T07:34:24.881Z,5.60
2024-04-30T07:36:52.628Z,5.63
2024-04-30T07:39:20.434Z,4.80
2024-04-30T07:41:48.304Z,5.75
2024-04-30T07:44:16.242Z,5.22
2024-04-30T07:46:43.967Z,4.88
2024-04-30T07:49:11.977Z,4.53
2024-04-30T07:51:39.703Z,7.20
2024-04-30T07:54:07.517Z,4.35
2024-04-30T07:56:35.486Z,5.32
2024-04-30T07:59:03.269Z,7.32
2024-04-30T08:01:31.010Z,4.82
2024-04-30T08:03:58.835Z,6.17
2024-04-30T08:06:26.996Z,5.32
2024-04-30T08:08:54.822Z,5.82
2024-04-30T08:11:22.696Z,6.88
2024-04-30T08:13:50.500Z,7.18
2024-04-30T08:16:18.298Z,5.43
2024-04-30T08:18:46.192Z,4.60
2024-04-30T08:21:13.988Z,5.00
2024-04-30T08:23:41.783Z,5.53
2024-04-30T08:26:09.555Z,6.72
2024-04-30T08:28:37.393Z,7.57
2024-04-30T08:31:05.838Z,6.70
2024-04-30T08:33:33.958Z,5.55
2024-04-30T08:36:01.801Z,4.75
2024-04-30T08:38:29.606Z,5.68
2024-04-30T08:40:58.553Z,5.57
2024-04-30T08:43:30.959Z,6.88
2024-04-30T08:46:00.950Z,6.90
2024-04-30T08:48:29.438Z,4.60
2024-04-30T08:50:58.706Z,4.95
2024-04-30T08:53:27.527Z,5.17
2024-04-30T08:55:56.475Z,6.97
2024-04-30T08:58:24.408Z,5.22
2024-04-30T09:00:54.951Z,5.35
2024-04-30T09:03:26.662Z,4.90
2024-04-30T09:05:55.715Z,6.87
2024-04-30T09:08:24.994Z,5.90
2024-04-30T09:10:53.159Z,5.07
2024-04-30T09:13:37.086Z,8.52
2024-04-30T09:16:10.114Z,5.60
2024-04-30T09:18:38.422Z,5.70
2024-04-30T09:21:16.746Z,4.28
2024-04-30T09:23:45.482Z,5.95
2024-04-30T09:26:13.377Z,5.47
2024-04-30T09:28:41.769Z,7.18
2024-04-30T09:31:11.971Z,6.10
2024-04-30T09:33:40.305Z,5.60
2024-04-30T09:36:10.598Z,4.72
2024-04-30T09:38:40.483Z,4.97
2024-04-30T09:41:14.015Z,8.23
2024-04-30T09:43:42.294Z,5.43
2024-04-30T09:46:10.446Z,5.10
2024-04-30T09:48:40.522Z,4.88
2024-04-30T09:51:16.072Z,6.45
2024-04-30T09:53:48.303Z,6.78
2024-04-30T09:56:18.257Z,5.43
2024-04-30T09:58:46.054Z,10.18
2024-04-30T10:01:18.210Z,4.97
2024-04-30T10:03:47.247Z,6.22
2024-04-30T10:06:17.710Z,5.43
2024-04-30T10:08:46.399Z,6.17
2024-04-30T10:11:14.132Z,5.63
2024-04-30T10:13:52.864Z,9.75
2024-04-30T10:16:24.495Z,5.50
2024-04-30T10:19:04.113Z,6.13
2024-04-30T10:21:36.568Z,6.07
2024-04-30T10:24:25.135Z,5.80
2024-04-30T10:26:53.124Z,5.88
2024-04-30T10:29:20.946Z,6.63
2024-04-30T10:31:49.628Z,6.55
2024-04-30T10:34:19.859Z,8.13
2024-04-30T10:36:52.529Z,8.00
2024-04-30T10:39:27.546Z,5.55
2024-04-30T10:41:55.420Z,6.22
2024-04-30T10:44:23.249Z,6.70
2024-04-30T10:46:51.610Z,7.07
2024-04-30T10:49:22.715Z,8.93
2024-04-30T10:51:53.799Z,10.13
2024-04-30T10:54:21.709Z,6.57
2024-04-30T10:56:49.428Z,5.90
2024-04-30T10:59:29.866Z,5.70
2024-04-30T11:02:00.819Z,5.93
2024-04-30T11:04:33.829Z,5.30
2024-04-30T11:07:01.927Z,5.90
2024-04-30T11:09:29.695Z,6.07
2024-04-30T11:12:02.584Z,7.33
2024-04-30T11:14:30.568Z,5.55
2024-04-30T11:16:58.731Z,5.63
2024-04-30T11:19:26.616Z,6.65
2024-04-30T11:21:55.027Z,5.38
2024-04-30T11:24:23.030Z,6.93
2024-04-30T11:26:51.236Z,5.82
2024-04-30T11:31:49.947Z,6.18
2024-04-30T11:34:17.730Z,6.28
2024-04-30T11:36:47.328Z,5.33
2024-04-30T11:39:15.163Z,6.82
2024-04-30T11:41:48.945Z,6.38
2024-04-30T11:44:24.808Z,6.47
2024-04-30T11:46:52.592Z,8.25
2024-04-30T11:49:20.404Z,7.53
2024-04-30T11:51:48.195Z,6.45
2024-04-30T11:54:16.060Z,5.25
2024-04-30T11:56:43.885Z,7.03
2024-04-30T11:59:11.641Z,6.95
2024-04-30T12:01:39.445Z,5.13
2024-04-30T12:04:07.310Z,7.15
2024-04-30T12:06:38.218Z,5.50
2024-04-30T12:09:06.898Z,6.88
2024-04-30T12:11:39.819Z,5.90
2024-04-30T12:14:07.807Z,5.37
2024-04-30T12:16:35.685Z,6.38
2024-04-30T12:19:05.089Z,11.50
2024-04-30T12:21:32.911Z,6.43
2024-04-30T12:24:00.662Z,7.50
2024-04-30T12:26:28.470Z,8.03
2024-04-30T12:28:56.268Z,7.40
2024-04-30T12:31:23.987Z,8.45
2024-04-30T12:33:51.783Z,6.00
2024-04-30T12:36:19.523Z,6.68
2024-04-30T12:38:47.286Z,6.50
2024-04-30T12:41:15.162Z,6.03
2024-04-30T12:43:43.035Z,6.95
2024-04-30T12:46:10.971Z,9.13
2024-04-30T12:48:38.880Z,6.72
2024-04-30T12:51:07.094Z,7.10
2024-04-30T12:53:34.913Z,6.28
2024-04-30T12:56:02.610Z,7.28
2024-04-30T12:58:30.484Z,5.72
2024-04-30T13:00:58.694Z,6.40
2024-04-30T13:03:26.632Z,6.43
2024-04-30T13:05:54.738Z,6.95
2024-04-30T13:08:22.487Z,7.95
2024-04-30T13:10:50.530Z,6.25
2024-04-30T13:13:18.620Z,5.45
2024-04-30T13:15:46.468Z,5.43
2024-04-30T13:18:14.409Z,8.15
2024-04-30T13:20:42.216Z,7.22
2024-04-30T13:23:10.064Z,5.40
2024-04-30T13:25:37.828Z,5.60
2024-04-30T13:28:06.494Z,6.07
2024-04-30T13:30:34.402Z,5.05
2024-04-30T13:33:03.460Z,7.60
2024-04-30T13:35:31.241Z,5.03
2024-04-30T13:37:59.025Z,5.50
2024-04-30T13:40:26.749Z,6.63
2024-04-30T13:42:54.637Z,5.95
2024-04-30T13:45:22.405Z,6.10
2024-04-30T13:47:50.195Z,6.05
2024-04-30T13:50:18.141Z,6.50
2024-04-30T13:52:46.039Z,4.97
2024-04-30T13:55:14.055Z,6.07
2024-04-30T13:57:45.137Z,6.75
2024-04-30T14:00:13.352Z,5.97
2024-04-30T14:02:41.107Z,5.35
2024-04-30T14:05:09.071Z,9.43
2024-04-30T14:07:36.832Z,5.55
2024-04-30T14:10:05.107Z,5.82
2024-04-30T14:12:32.844Z,6.22
2024-04-30T14:15:00.670Z,7.82
2024-04-30T14:17:28.462Z,5.97
2024-04-30T14:19:56.442Z,7.30
2024-04-30T14:22:24.336Z,5.55
2024-04-30T14:24:52.166Z,5.70
2024-04-30T14:27:19.940Z,8.15
2024-04-30T14:29:47.816Z,9.17
2024-04-30T14:32:15.520Z,6.22
2024-04-30T14:34:43.352Z,8.48
2024-04-30T14:37:11.276Z,5.63
2024-04-30T14:39:39.279Z,7.40
2024-04-30T14:42:07.097Z,5.93
2024-04-30T14:44:34.859Z,9.23
2024-04-30T14:47:02.542Z,6.30
2024-04-30T14:49:30.415Z,6.10
2024-04-30T14:51:58.171Z,5.72
2024-04-30T14:54:25.963Z,6.07
2024-04-30T14:56:55.477Z,9.30
2024-04-30T14:59:23.738Z,6.90
2024-04-30T15:01:51.617Z,6.93
2024-04-30T15:04:19.690Z,6.28
2024-04-30T15:06:47.657Z,8.67
2024-04-30T15:09:15.639Z,7.80
2024-04-30T15:11:43.420Z,5.43
2024-04-30T15:14:11.191Z,6.43
2024-04-30T15:16:45.671Z,7.13
2024-04-30T15:19:13.738Z,5.97
2024-04-30T15:21:45.148Z,9.23
2024-04-30T15:24:13.119Z,9.15
2024-04-30T15:26:41.086Z,8.77
2024-04-30T15:29:08.856Z,7.63
2024-04-30T15:31:36.867Z,7.10
2024-04-30T15:34:04.780Z,9.95
2024-04-30T15:36:32.485Z,6.10
2024-04-30T15:39:00.348Z,7.00
2024-04-30T15:41:28.051Z,7.88
2024-04-30T15:43:55.847Z,5.83
2024-04-30T15:46:24.139Z,7.07
2024-04-30T15:48:53.502Z,9.85
2024-04-30T15:51:21.387Z,7.22
2024-04-30T15:53:49.159Z,7.70
2024-04-30T15:56:19.487Z,5.73
2024-04-30T15:58:49.360Z,7.95
2024-04-30T16:01:17.430Z,9.05
2024-04-30T16:03:45.452Z,7.05
2024-04-30T16:06:15.533Z,9.75
2024-04-30T16:08:43.403Z,7.60
2024-04-30T16:11:12.149Z,7.70
2024-04-30T16:13:41.647Z,9.38
2024-04-30T16:16:16.421Z,6.55
2024-04-30T16:18:48.161Z,8.52
2024-04-30T16:21:16.800Z,7.47
2024-04-30T16:23:45.272Z,4.75
2024-04-30T16:26:13.082Z,7.97
2024-04-30T16:28:44.644Z,7.03
2024-04-30T16:31:15.363Z,7.20
2024-04-30T16:33:43.809Z,8.30
2024-04-30T16:36:24.398Z,8.23
2024-04-30T16:38:52.641Z,6.68
2024-04-30T16:41:20.582Z,5.75
2024-04-30T16:43:48.386Z,5.82
2024-04-30T16:46:16.206Z,7.73
2024-04-30T16:48:44.190Z,7.28
2024-04-30T16:51:15.479Z,8.25
2024-04-30T16:53:44.147Z,10.23
2024-04-30T16:56:13.077Z,6.40
2024-04-30T16:58:40.986Z,6.37
2024-04-30T17:01:08.829Z,7.60
2024-04-30T17:03:41.387Z,7.90
2024-04-30T17:06:12.326Z,9.48
2024-04-30T17:08:41.670Z,7.57
2024-04-30T17:11:11.055Z,9.20
2024-04-30T17:13:45.421Z,5.80
2024-04-30T17:16:24.022Z,9.05
2024-04-30T17:18:52.047Z,7.10
2024-04-30T17:21:22.688Z,10.82
2024-04-30T17:23:50.967Z,5.37
2024-04-30T17:26:26.446Z,9.35
2024-04-30T17:28:55.515Z,6.70
2024-04-30T17:31:23.329Z,7.20
2024-04-30T17:33:56.076Z,9.10
2024-04-30T17:36:24.273Z,6.40
2024-04-30T17:38:52.117Z,7.30
2024-04-30T17:41:27.208Z,8.93
2024-04-30T17:43:55.041Z,9.35
2024-04-30T17:46:26.054Z,7.72
2024-04-30T17:48:56.250Z,7.90
2024-04-30T17:51:25.820Z,8.18
2024-04-30T17:53:54.254Z,7.65
2024-04-30T17:56:22.128Z,7.80
2024-04-30T17:58:50.126Z,7.40
2024-04-30T18:01:19.314Z,9.17
2024-04-30T18:03:55.530Z,8.00
2024-04-30T18:06:24.226Z,6.95
2024-04-30T18:08:57.724Z,7.80
2024-04-30T18:11:29.815Z,9.00
2024-04-30T18:13:57.866Z,6.63
2024-04-30T18:16:28.831Z,8.30
2024-04-30T18:18:57.135Z,7.90
2024-04-30T18:21:35.115Z,7.63
2024-04-30T18:24:04.625Z,9.35
2024-04-30T18:26:32.383Z,8.07
2024-04-30T18:29:00.135Z,7.70
2024-04-30T18:31:29.718Z,7.00
2024-04-30T18:33:57.784Z,7.82
2024-04-30T18:36:26.509Z,11.27
2024-04-30T18:38:54.917Z,7.50
2024-04-30T18:41:28.401Z,9.20
2024-04-30T18:43:59.899Z,8.75
2024-04-30T18:46:28.220Z,7.90
2024-04-30T18:48:56.640Z,8.55
2024-04-30T18:51:24.636Z,10.80
2024-04-30T18:53:52.601Z,9.90
2024-04-30T18:56:20.347Z,10.43
2024-04-30T18:58:48.612Z,10.00
2024-04-30T19:01:18.966Z,11.07
2024-04-30T19:03:49.691Z,11.77
2024-04-30T19:06:21.303Z,14.43
2024-04-30T19:08:49.168Z,11.65
2024-04-30T19:11:17.025Z,11.52
2024-04-30T19:13:44.977Z,8.68
2024-04-30T19:16:12.973Z,12.53
2024-04-30T19:18:41.019Z,9.88
2024-04-30T19:21:09.182Z,9.30
2024-04-30T19:23:37.136Z,9.02
2024-04-30T19:26:05.180Z,8.70
2024-04-30T19:28:32.985Z,9.40
2024-04-30T19:31:01.073Z,11.90
2024-04-30T19:33:28.941Z,10.38
2024-04-30T19:35:56.849Z,10.70
2024-04-30T19:38:24.775Z,9.07
2024-04-30T19:40:52.612Z,10.70
2024-04-30T19:43:20.310Z,13.65
2024-04-30T19:45:51.002Z,9.40
2024-04-30T19:48:20.400Z,13.43
2024-04-30T19:50:49.517Z,10.52
2024-04-30T19:53:17.452Z,9.80
2024-04-30T19:55:45.211Z,12.82
2024-04-30T19:58:12.977Z,8.38
2024-04-30T20:00:40.743Z,10.50
2024-04-30T20:03:08.524Z,9.88
2024-04-30T20:05:37.052Z,11.13
2024-04-30T20:08:05.281Z,11.45
2024-04-30T20:10:32.969Z,9.05
2024-04-30T20:13:00.801Z,11.13
2024-04-30T20:15:28.584Z,10.30
2024-04-30T20:17:56.428Z,12.60
2024-04-30T20:20:25.343Z,10.35
2024-04-30T20:22:53.073Z,8.35
2024-04-30T20:25:21.283Z,9.57
2024-04-30T20:27:50.518Z,8.98
2024-04-30T20:30:18.569Z,9.17
2024-04-30T20:32:46.717Z,10.25
2024-04-30T20:35:14.607Z,11.20
2024-04-30T20:37:42.388Z,12.40
2024-04-30T20:40:10.459Z,15.52
2024-04-30T20:42:38.280Z,20.50
2024-04-30T20:45:06.767Z,18.33
2024-04-30T20:47:34.731Z,14.65
2024-04-30T20:50:02.520Z,12.68
2024-04-30T20:52:30.341Z,12.02
2024-04-30T20:54:58.088Z,12.07
2024-04-30T20:57:26.050Z,12.02
2024-04-30T20:59:53.935Z,11.23
2024-04-30T21:02:22.729Z,16.13
2024-04-30T21:04:50.627Z,14.23
2024-04-30T21:07:18.377Z,9.80
2024-04-30T21:09:46.719Z,12.20
2024-04-30T21:12:14.611Z,14.32
2024-04-30T21:14:42.392Z,12.90
2024-04-30T21:17:10.334Z,12.48
2024-04-30T21:19:38.199Z,9.43
2024-04-30T21:22:06.097Z,11.40
2024-04-30T21:24:36.183Z,11.70
2024-04-30T21:27:04.367Z,11.57
2024-04-30T21:29:32.238Z,10.55
2024-04-30T21:32:00.046Z,11.27
2024-04-30T21:34:28.175Z,9.82
2024-04-30T21:36:56.056Z,11.02
2024-04-30T21:39:23.872Z,11.52
2024-04-30T21:41:51.859Z,10.32
2024-04-30T21:44:19.688Z,10.23
2024-04-30T21:46:47.535Z,9.88
2024-04-30T21:49:15.525Z,11.45
2024-04-30T21:51:46.339Z,11.27
2024-04-30T21:54:15.004Z,10.93
2024-04-30T21:56:42.802Z,13.20
2024-04-30T21:59:10.679Z,10.55
2024-04-30T22:01:38.442Z,11.90
2024-04-30T22:04:06.460Z,10.45
2024-04-30T22:06:34.521Z,11.90
2024-04-30T22:09:02.669Z,10.37
2024-04-30T22:11:31.933Z,12.63
2024-04-30T22:14:00.270Z,12.20
2024-04-30T22:16:28.021Z,10.50
2024-04-30T22:18:55.995Z,10.77
2024-04-30T22:21:25.452Z,9.53
2024-04-30T22:23:53.707Z,13.55
2024-04-30T22:26:21.485Z,14.60
2024-04-30T22:28:49.412Z,11.50
2024-04-30T22:31:17.116Z,11.88
2024-04-30T22:33:45.076Z,12.57
2024-04-30T22:36:12.865Z,12.95
2024-04-30T22:38:40.812Z,12.32
2024-04-30T22:41:08.595Z,12.88
2024-04-30T22:43:36.375Z,9.88
2024-04-30T22:46:05.004Z,12.33
2024-04-30T22:48:32.955Z,11.38
2024-04-30T22:51:01.019Z,8.98
2024-04-30T22:53:32.663Z,11.90
2024-04-30T22:56:03.366Z,15.48
2024-04-30T22:58:31.066Z,9.50
2024-04-30T23:00:58.933Z,10.20
2024-04-30T23:03:26.800Z,9.30
2024-04-30T23:05:54.815Z,15.52
2024-04-30T23:08:23.076Z,12.00
2024-04-30T23:10:50.934Z,11.00
2024-04-30T23:13:18.622Z,10.90
2024-04-30T23:15:46.382Z,9.27
2024-04-30T23:18:14.303Z,9.10
2024-04-30T23:20:42.290Z,11.90
2024-04-30T23:23:10.008Z,10.37
2024-04-30T23:25:37.763Z,8.95
2024-04-30T23:28:06.007Z,11.80
2024-04-30T23:30:35.304Z,11.35
2024-04-30T23:33:03.157Z,12.25
2024-04-30T23:35:30.923Z,12.17
2024-04-30T23:38:01.588Z,9.88
2024-04-30T23:40:29.415Z,11.93
2024-04-30T23:42:57.704Z,9.18
2024-04-30T23:45:25.590Z,9.02
2024-04-30T23:47:53.541Z,13.87
2024-04-30T23:50:21.354Z,13.73
2024-04-30T23:52:49.082Z,15.73
2024-04-30T23:55:16.898Z,15.85
2024-04-30T23:57:44.672Z,9.32
